sensor_id;sensor_type;location;lat;lon;timestamp;P1;durP1;ratioP1;P2;durP2;ratioP2
72557;SDS011;60583;50.094;8.748;2023-11-18T00:01:23;18.58;;;10.35;;
72557;SDS011;60583;50.094;8.748;2023-11-18T00:03:49;20.45;;;10.35;;
72557;SDS011;60583;50.094;8.748;2023-11-18T00:06:14;17.35;;;10.55;;
72557;SDS011;60583;50.094;8.748;2023-11-18T00:08:39;17.88;;;10.50;;
72557;SDS011;60583;50.094;8.748;2023-11-18T00:11:05;18.00;;;10.07;;
72557;SDS011;60583;50.094;8.748;2023-11-18T00:13:30;19.50;;;10.48;;
72557;SDS011;60583;50.094;8.748;2023-11-18T00:15:55;23.65;;;10.75;;
72557;SDS011;60583;50.094;8.748;2023-11-18T00:18:27;16.85;;;10.70;;
72557;SDS011;60583;50.094;8.748;2023-11-18T00:20:53;18.17;;;10.40;;
72557;SDS011;60583;50.094;8.748;2023-11-18T00:23:18;17.50;;;9.90;;
72557;SDS011;60583;50.094;8.748;2023-11-18T00:25:43;17.38;;;8.98;;
72557;SDS011;60583;50.094;8.748;2023-11-18T00:28:10;16.20;;;9.55;;
72557;SDS011;60583;50.094;8.748;2023-11-18T00:30:36;16.55;;;8.05;;
72557;SDS011;60583;50.094;8.748;2023-11-18T00:33:02;17.52;;;8.98;;
72557;SDS011;60583;50.094;8.748;2023-11-18T00:35:27;15.80;;;8.10;;
72557;SDS011;60583;50.094;8.748;2023-11-18T00:37:57;15.98;;;8.68;;
72557;SDS011;60583;50.094;8.748;2023-11-18T00:40:23;15.68;;;8.55;;
72557;SDS011;60583;50.094;8.748;2023-11-18T00:42:48;13.52;;;8.25;;
72557;SDS011;60583;50.094;8.748;2023-11-18T00:45:14;14.52;;;8.48;;
72557;SDS011;60583;50.094;8.748;2023-11-18T00:47:40;14.65;;;8.30;;
72557;SDS011;60583;50.094;8.748;2023-11-18T00:50:08;16.83;;;9.48;;
72557;SDS011;60583;50.094;8.748;2023-11-18T00:52:34;15.20;;;9.02;;
72557;SDS011;60583;50.094;8.748;2023-11-18T00:54:59;13.45;;;7.90;;
72557;SDS011;60583;50.094;8.748;2023-11-18T00:57:26;15.30;;;8.02;;
72557;SDS011;60583;50.094;8.748;2023-11-18T00:59:52;16.25;;;8.30;;
72557;SDS011;60583;50.094;8.748;2023-11-18T01:02:17;16.63;;;8.23;;
72557;SDS011;60583;50.094;8.748;2023-11-18T01:04:43;15.43;;;8.45;;
72557;SDS011;60583;50.094;8.748;2023-11-18T01:07:11;14.25;;;7.65;;
72557;SDS011;60583;50.094;8.748;2023-11-18T01:09:37;17.42;;;8.60;;
72557;SDS011;60583;50.094;8.748;2023-11-18T01:12:04;13.52;;;7.93;;
72557;SDS011;60583;50.094;8.748;2023-11-18T01:14:31;17.35;;;8.88;;
72557;SDS011;60583;50.094;8.748;2023-11-18T01:16:56;14.30;;;7.70;;
72557;SDS011;60583;50.094;8.748;2023-11-18T01:19:23;13.73;;;7.72;;
72557;SDS011;60583;50.094;8.748;2023-11-18T01:21:49;12.68;;;7.63;;
72557;SDS011;60583;50.094;8.748;2023-11-18T01:24:14;14.50;;;7.93;;
72557;SDS011;60583;50.094;8.748;2023-11-18T01:26:41;15.57;;;8.35;;
72557;SDS011;60583;50.094;8.748;2023-11-18T01:29:07;14.20;;;8.43;;
72557;SDS011;60583;50.094;8.748;2023-11-18T01:31:32;15.32;;;8.10;;
72557;SDS011;60583;50.094;8.748;2023-11-18T01:33:58;17.13;;;7.78;;
72557;SDS011;60583;50.094;8.748;2023-11-18T01:36:24;16.55;;;8.07;;
72557;SDS011;60583;50.094;8.748;2023-11-18T01:38:50;14.85;;;7.82;;
72557;SDS011;60583;50.094;8.748;2023-11-18T01:41:16;14.52;;;7.80;;
72557;SDS011;60583;50.094;8.748;2023-11-18T01:43:41;13.13;;;7.72;;
72557;SDS011;60583;50.094;8.748;2023-11-18T01:46:10;13.65;;;7.72;;
72557;SDS011;60583;50.094;8.748;2023-11-18T01:48:36;14.52;;;7.53;;
72557;SDS011;60583;50.094;8.748;2023-11-18T01:51:03;16.33;;;7.65;;
72557;SDS011;60583;50.094;8.748;2023-11-18T01:53:31;14.57;;;7.55;;
72557;SDS011;60583;50.094;8.748;2023-11-18T01:55:58;14.98;;;7.57;;
72557;SDS011;60583;50.094;8.748;2023-11-18T01:58:24;17.73;;;8.50;;
72557;SDS011;60583;50.094;8.748;2023-11-18T02:00:51;15.63;;;8.55;;
72557;SDS011;60583;50.094;8.748;2023-11-18T02:03:17;17.58;;;8.68;;
72557;SDS011;60583;50.094;8.748;2023-11-18T02:05:42;16.65;;;9.10;;
72557;SDS011;60583;50.094;8.748;2023-11-18T02:08:09;15.27;;;8.40;;
72557;SDS011;60583;50.094;8.748;2023-11-18T02:10:38;18.00;;;8.32;;
72557;SDS011;60583;50.094;8.748;2023-11-18T02:13:29;15.50;;;8.10;;
72557;SDS011;60583;50.094;8.748;2023-11-18T02:15:58;16.38;;;8.27;;
72557;SDS011;60583;50.094;8.748;2023-11-18T02:18:24;16.52;;;8.27;;
72557;SDS011;60583;50.094;8.748;2023-11-18T02:20:52;15.18;;;8.07;;
72557;SDS011;60583;50.094;8.748;2023-11-18T02:23:20;14.00;;;8.13;;
72557;SDS011;60583;50.094;8.748;2023-11-18T02:25:47;15.68;;;8.48;;
72557;SDS011;60583;50.094;8.748;2023-11-18T02:28:13;15.88;;;8.30;;
72557;SDS011;60583;50.094;8.748;2023-11-18T02:30:39;13.52;;;8.48;;
72557;SDS011;60583;50.094;8.748;2023-11-18T02:33:11;16.25;;;8.63;;
72557;SDS011;60583;50.094;8.748;2023-11-18T02:38:39;16.80;;;8.95;;
72557;SDS011;60583;50.094;8.748;2023-11-18T02:41:11;16.02;;;8.27;;
72557;SDS011;60583;50.094;8.748;2023-11-18T02:43:39;18.15;;;9.05;;
72557;SDS011;60583;50.094;8.748;2023-11-18T02:46:05;16.90;;;8.88;;
72557;SDS011;60583;50.094;8.748;2023-11-18T02:48:32;23.08;;;8.57;;
72557;SDS011;60583;50.094;8.748;2023-11-18T02:50:59;17.30;;;8.15;;
72557;SDS011;60583;50.094;8.748;2023-11-18T02:53:24;15.75;;;8.73;;
72557;SDS011;60583;50.094;8.748;2023-11-18T02:55:50;16.50;;;8.05;;
72557;SDS011;60583;50.094;8.748;2023-11-18T02:58:17;15.88;;;8.75;;
72557;SDS011;60583;50.094;8.748;2023-11-18T03:00:43;20.58;;;9.07;;
72557;SDS011;60583;50.094;8.748;2023-11-18T03:03:10;18.13;;;9.32;;
72557;SDS011;60583;50.094;8.748;2023-11-18T03:05:36;17.63;;;8.68;;
72557;SDS011;60583;50.094;8.748;2023-11-18T03:08:02;16.05;;;8.30;;
72557;SDS011;60583;50.094;8.748;2023-11-18T03:10:31;16.58;;;9.00;;
72557;SDS011;60583;50.094;8.748;2023-11-18T03:12:59;20.40;;;9.02;;
72557;SDS011;60583;50.094;8.748;2023-11-18T03:15:25;15.50;;;8.60;;
72557;SDS011;60583;50.094;8.748;2023-11-18T03:17:52;18.90;;;8.27;;
72557;SDS011;60583;50.094;8.748;2023-11-18T03:20:18;13.20;;;7.95;;
72557;SDS011;60583;50.094;8.748;2023-11-18T03:22:44;18.90;;;7.60;;
72557;SDS011;60583;50.094;8.748;2023-11-18T03:25:11;11.80;;;7.40;;
72557;SDS011;60583;50.094;8.748;2023-11-18T03:27:40;10.95;;;7.20;;
72557;SDS011;60583;50.094;8.748;2023-11-18T03:30:05;15.00;;;6.95;;
72557;SDS011;60583;50.094;8.748;2023-11-18T03:32:33;10.57;;;6.68;;
72557;SDS011;60583;50.094;8.748;2023-11-18T03:35:00;11.45;;;6.50;;
72557;SDS011;60583;50.094;8.748;2023-11-18T03:37:25;17.30;;;7.15;;
72557;SDS011;60583;50.094;8.748;2023-11-18T03:39:51;13.00;;;6.32;;
72557;SDS011;60583;50.094;8.748;2023-11-18T03:42:17;14.48;;;6.63;;
72557;SDS011;60583;50.094;8.748;2023-11-18T03:44:43;11.45;;;6.30;;
72557;SDS011;60583;50.094;8.748;2023-11-18T03:47:09;25.58;;;6.93;;
72557;SDS011;60583;50.094;8.748;2023-11-18T03:49:34;22.17;;;6.88;;
72557;SDS011;60583;50.094;8.748;2023-11-18T03:51:59;12.25;;;6.90;;
72557;SDS011;60583;50.094;8.748;2023-11-18T03:54:25;15.35;;;7.03;;
72557;SDS011;60583;50.094;8.748;2023-11-18T03:56:50;10.65;;;6.32;;
72557;SDS011;60583;50.094;8.748;2023-11-18T03:59:16;11.60;;;6.30;;
72557;SDS011;60583;50.094;8.748;2023-11-18T04:01:41;11.70;;;6.45;;
72557;SDS011;60583;50.094;8.748;2023-11-18T04:04:07;45.03;;;7.63;;
72557;SDS011;60583;50.094;8.748;2023-11-18T04:06:32;11.88;;;6.95;;
72557;SDS011;60583;50.094;8.748;2023-11-18T04:08:57;13.45;;;6.72;;
72557;SDS011;60583;50.094;8.748;2023-11-18T04:11:24;13.63;;;6.38;;
72557;SDS011;60583;50.094;8.748;2023-11-18T04:13:49;10.93;;;6.13;;
72557;SDS011;60583;50.094;8.748;2023-11-18T04:16:15;11.18;;;5.97;;
72557;SDS011;60583;50.094;8.748;2023-11-18T04:18:41;12.65;;;6.47;;
72557;SDS011;60583;50.094;8.748;2023-11-18T04:21:08;10.77;;;6.13;;
72557;SDS011;60583;50.094;8.748;2023-11-18T04:23:40;15.40;;;6.53;;
72557;SDS011;60583;50.094;8.748;2023-11-18T04:26:07;10.57;;;6.75;;
72557;SDS011;60583;50.094;8.748;2023-11-18T04:28:34;11.13;;;6.32;;
72557;SDS011;60583;50.094;8.748;2023-11-18T04:31:00;10.77;;;6.38;;
72557;SDS011;60583;50.094;8.748;2023-11-18T04:33:25;10.93;;;6.10;;
72557;SDS011;60583;50.094;8.748;2023-11-18T04:35:51;10.32;;;6.53;;
72557;SDS011;60583;50.094;8.748;2023-11-18T04:38:20;11.85;;;6.63;;
72557;SDS011;60583;50.094;8.748;2023-11-18T04:40:46;12.82;;;6.32;;
72557;SDS011;60583;50.094;8.748;2023-11-18T04:43:12;16.52;;;6.80;;
72557;SDS011;60583;50.094;8.748;2023-11-18T04:45:38;10.73;;;6.03;;
72557;SDS011;60583;50.094;8.748;2023-11-18T04:48:04;13.02;;;6.90;;
72557;SDS011;60583;50.094;8.748;2023-11-18T04:50:30;13.45;;;6.00;;
72557;SDS011;60583;50.094;8.748;2023-11-18T04:52:57;11.27;;;6.05;;
72557;SDS011;60583;50.094;8.748;2023-11-18T04:55:22;13.00;;;6.57;;
72557;SDS011;60583;50.094;8.748;2023-11-18T04:57:47;11.05;;;6.18;;
72557;SDS011;60583;50.094;8.748;2023-11-18T05:00:13;13.20;;;6.57;;
72557;SDS011;60583;50.094;8.748;2023-11-18T05:02:42;16.38;;;7.18;;
72557;SDS011;60583;50.094;8.748;2023-11-18T05:05:08;11.43;;;6.38;;
72557;SDS011;60583;50.094;8.748;2023-11-18T05:07:34;14.18;;;6.18;;
72557;SDS011;60583;50.094;8.748;2023-11-18T05:10:00;10.15;;;5.60;;
72557;SDS011;60583;50.094;8.748;2023-11-18T05:12:26;12.10;;;6.78;;
72557;SDS011;60583;50.094;8.748;2023-11-18T05:14:55;10.70;;;6.53;;
72557;SDS011;60583;50.094;8.748;2023-11-18T05:17:22;12.88;;;6.22;;
72557;SDS011;60583;50.094;8.748;2023-11-18T05:19:48;14.35;;;6.65;;
72557;SDS011;60583;50.094;8.748;2023-11-18T05:22:13;16.55;;;7.50;;
72557;SDS011;60583;50.094;8.748;2023-11-18T05:24:38;14.02;;;6.80;;
72557;SDS011;60583;50.094;8.748;2023-11-18T05:27:04;18.88;;;7.32;;
72557;SDS011;60583;50.094;8.748;2023-11-18T05:29:30;31.77;;;8.10;;
72557;SDS011;60583;50.094;8.748;2023-11-18T05:31:56;19.85;;;7.93;;
72557;SDS011;60583;50.094;8.748;2023-11-18T05:34:21;15.32;;;7.60;;
72557;SDS011;60583;50.094;8.748;2023-11-18T05:36:47;15.85;;;8.05;;
72557;SDS011;60583;50.094;8.748;2023-11-18T05:39:16;16.73;;;8.10;;
72557;SDS011;60583;50.094;8.748;2023-11-18T05:41:41;24.33;;;8.40;;
72557;SDS011;60583;50.094;8.748;2023-11-18T05:44:11;21.35;;;7.90;;
72557;SDS011;60583;50.094;8.748;2023-11-18T05:46:42;15.98;;;7.65;;
72557;SDS011;60583;50.094;8.748;2023-11-18T05:49:11;17.85;;;7.88;;
72557;SDS011;60583;50.094;8.748;2023-11-18T05:51:38;14.60;;;6.95;;
72557;SDS011;60583;50.094;8.748;2023-11-18T05:54:06;25.55;;;7.50;;
72557;SDS011;60583;50.094;8.748;2023-11-18T05:56:32;21.48;;;7.43;;
72557;SDS011;60583;50.094;8.748;2023-11-18T05:58:57;29.13;;;7.55;;
72557;SDS011;60583;50.094;8.748;2023-11-18T06:01:23;21.02;;;7.22;;
72557;SDS011;60583;50.094;8.748;2023-11-18T06:03:52;22.38;;;7.68;;
72557;SDS011;60583;50.094;8.748;2023-11-18T06:06:18;17.00;;;7.53;;
72557;SDS011;60583;50.094;8.748;2023-11-18T06:08:45;15.93;;;7.13;;
72557;SDS011;60583;50.094;8.748;2023-11-18T06:11:12;16.73;;;7.20;;
72557;SDS011;60583;50.094;8.748;2023-11-18T06:13:39;16.05;;;7.38;;
72557;SDS011;60583;50.094;8.748;2023-11-18T06:16:17;14.52;;;7.13;;
72557;SDS011;60583;50.094;8.748;2023-11-18T06:18:50;19.63;;;8.35;;
72557;SDS011;60583;50.094;8.748;2023-11-18T06:21:18;17.15;;;7.57;;
72557;SDS011;60583;50.094;8.748;2023-11-18T06:23:46;19.50;;;7.97;;
72557;SDS011;60583;50.094;8.748;2023-11-18T06:26:13;18.08;;;8.15;;
72557;SDS011;60583;50.094;8.748;2023-11-18T06:28:40;21.65;;;7.35;;
72557;SDS011;60583;50.094;8.748;2023-11-18T06:31:06;16.23;;;7.53;;
72557;SDS011;60583;50.094;8.748;2023-11-18T06:33:40;26.10;;;7.78;;
72557;SDS011;60583;50.094;8.748;2023-11-18T06:36:08;16.92;;;7.50;;
72557;SDS011;60583;50.094;8.748;2023-11-18T06:38:36;16.02;;;6.85;;
72557;SDS011;60583;50.094;8.748;2023-11-18T06:41:02;17.02;;;7.35;;
72557;SDS011;60583;50.094;8.748;2023-11-18T06:43:30;18.48;;;6.97;;
72557;SDS011;60583;50.094;8.748;2023-11-18T06:46:07;17.33;;;7.22;;
72557;SDS011;60583;50.094;8.748;2023-11-18T06:48:35;16.25;;;7.60;;
72557;SDS011;60583;50.094;8.748;2023-11-18T06:51:00;19.73;;;7.45;;
72557;SDS011;60583;50.094;8.748;2023-11-18T06:53:27;19.23;;;8.43;;
72557;SDS011;60583;50.094;8.748;2023-11-18T06:55:52;18.10;;;7.47;;
72557;SDS011;60583;50.094;8.748;2023-11-18T06:58:18;20.08;;;7.93;;
72557;SDS011;60583;50.094;8.748;2023-11-18T07:00:43;22.17;;;8.35;;
72557;SDS011;60583;50.094;8.748;2023-11-18T07:03:08;17.27;;;7.78;;
72557;SDS011;60583;50.094;8.748;2023-11-18T07:05:34;22.33;;;8.85;;
72557;SDS011;60583;50.094;8.748;2023-11-18T07:07:59;21.67;;;8.30;;
72557;SDS011;60583;50.094;8.748;2023-11-18T07:10:24;18.67;;;8.35;;
72557;SDS011;60583;50.094;8.748;2023-11-18T07:12:52;20.58;;;7.97;;
72557;SDS011;60583;50.094;8.748;2023-11-18T07:15:18;21.73;;;9.50;;
72557;SDS011;60583;50.094;8.748;2023-11-18T07:17:43;20.20;;;8.45;;
72557;SDS011;60583;50.094;8.748;2023-11-18T07:20:09;18.95;;;8.73;;
72557;SDS011;60583;50.094;8.748;2023-11-18T07:22:38;21.95;;;8.18;;
72557;SDS011;60583;50.094;8.748;2023-11-18T07:25:03;31.02;;;9.20;;
72557;SDS011;60583;50.094;8.748;2023-11-18T07:27:33;18.25;;;8.77;;
72557;SDS011;60583;50.094;8.748;2023-11-18T07:30:00;23.10;;;9.10;;
72557;SDS011;60583;50.094;8.748;2023-11-18T07:32:25;23.17;;;8.85;;
72557;SDS011;60583;50.094;8.748;2023-11-18T07:34:50;26.30;;;8.52;;
72557;SDS011;60583;50.094;8.748;2023-11-18T07:37:16;18.58;;;8.38;;
72557;SDS011;60583;50.094;8.748;2023-11-18T07:39:41;21.13;;;8.43;;
72557;SDS011;60583;50.094;8.748;2023-11-18T07:42:13;25.60;;;9.15;;
72557;SDS011;60583;50.094;8.748;2023-11-18T07:44:38;22.52;;;8.48;;
72557;SDS011;60583;50.094;8.748;2023-11-18T07:47:04;19.13;;;8.55;;
72557;SDS011;60583;50.094;8.748;2023-11-18T07:49:31;25.65;;;8.88;;
72557;SDS011;60583;50.094;8.748;2023-11-18T07:51:57;22.30;;;9.25;;
72557;SDS011;60583;50.094;8.748;2023-11-18T07:54:22;22.85;;;8.65;;
72557;SDS011;60583;50.094;8.748;2023-11-18T07:56:49;23.30;;;9.07;;
72557;SDS011;60583;50.094;8.748;2023-11-18T07:59:16;22.05;;;8.57;;
72557;SDS011;60583;50.094;8.748;2023-11-18T08:01:43;25.45;;;9.05;;
72557;SDS011;60583;50.094;8.748;2023-11-18T08:04:12;24.40;;;9.05;;
72557;SDS011;60583;50.094;8.748;2023-11-18T08:06:41;20.70;;;8.20;;
72557;SDS011;60583;50.094;8.748;2023-11-18T08:09:08;19.10;;;9.00;;
72557;SDS011;60583;50.094;8.748;2023-11-18T08:11:38;20.92;;;8.57;;
72557;SDS011;60583;50.094;8.748;2023-11-18T08:14:09;19.83;;;8.82;;
72557;SDS011;60583;50.094;8.748;2023-11-18T08:16:34;20.60;;;9.02;;
72557;SDS011;60583;50.094;8.748;2023-11-18T08:19:01;23.45;;;9.60;;
72557;SDS011;60583;50.094;8.748;2023-11-18T08:21:27;18.77;;;8.40;;
72557;SDS011;60583;50.094;8.748;2023-11-18T08:23:53;17.92;;;7.97;;
72557;SDS011;60583;50.094;8.748;2023-11-18T08:26:19;21.48;;;9.02;;
72557;SDS011;60583;50.094;8.748;2023-11-18T08:28:45;20.45;;;8.63;;
72557;SDS011;60583;50.094;8.748;2023-11-18T08:31:12;20.63;;;8.45;;
72557;SDS011;60583;50.094;8.748;2023-11-18T08:33:40;23.02;;;8.65;;
72557;SDS011;60583;50.094;8.748;2023-11-18T08:36:06;20.05;;;8.80;;
72557;SDS011;60583;50.094;8.748;2023-11-18T08:38:32;22.52;;;8.68;;
72557;SDS011;60583;50.094;8.748;2023-11-18T08:40:58;22.63;;;9.25;;
72557;SDS011;60583;50.094;8.748;2023-11-18T08:43:24;21.42;;;8.88;;
72557;SDS011;60583;50.094;8.748;2023-11-18T08:45:50;20.88;;;9.15;;
72557;SDS011;60583;50.094;8.748;2023-11-18T08:48:15;20.45;;;9.00;;
72557;SDS011;60583;50.094;8.748;2023-11-18T08:50:43;20.88;;;9.27;;
72557;SDS011;60583;50.094;8.748;2023-11-18T08:53:10;21.05;;;9.57;;
72557;SDS011;60583;50.094;8.748;2023-11-18T08:55:37;22.15;;;9.07;;
72557;SDS011;60583;50.094;8.748;2023-11-18T08:58:06;21.02;;;9.07;;
72557;SDS011;60583;50.094;8.748;2023-11-18T09:00:48;16.50;;;7.90;;
72557;SDS011;60583;50.094;8.748;2023-11-18T09:06:00;21.38;;;10.10;;
72557;SDS011;60583;50.094;8.748;2023-11-18T09:11:00;27.33;;;12.48;;
72557;SDS011;60583;50.094;8.748;2023-11-18T09:13:26;25.10;;;10.35;;
72557;SDS011;60583;50.094;8.748;2023-11-18T09:15:58;23.33;;;9.93;;
72557;SDS011;60583;50.094;8.748;2023-11-18T09:18:28;25.17;;;9.77;;
72557;SDS011;60583;50.094;8.748;2023-11-18T09:20:55;21.63;;;10.05;;
72557;SDS011;60583;50.094;8.748;2023-11-18T09:23:24;20.20;;;9.15;;
72557;SDS011;60583;50.094;8.748;2023-11-18T09:25:50;21.48;;;10.00;;
72557;SDS011;60583;50.094;8.748;2023-11-18T09:28:17;19.23;;;8.32;;
72557;SDS011;60583;50.094;8.748;2023-11-18T09:30:44;24.65;;;10.32;;
72557;SDS011;60583;50.094;8.748;2023-11-18T09:33:22;21.92;;;9.85;;
72557;SDS011;60583;50.094;8.748;2023-11-18T09:36:01;22.13;;;10.70;;
72557;SDS011;60583;50.094;8.748;2023-11-18T09:38:32;18.98;;;9.65;;
72557;SDS011;60583;50.094;8.748;2023-11-18T09:41:02;25.77;;;11.00;;
72557;SDS011;60583;50.094;8.748;2023-11-18T09:43:35;23.60;;;9.73;;
72557;SDS011;60583;50.094;8.748;2023-11-18T09:46:07;23.95;;;10.68;;
72557;SDS011;60583;50.094;8.748;2023-11-18T09:48:43;25.58;;;10.00;;
72557;SDS011;60583;50.094;8.748;2023-11-18T09:51:55;22.20;;;10.23;;
72557;SDS011;60583;50.094;8.748;2023-11-18T09:54:12;23.25;;;11.02;;
72557;SDS011;60583;50.094;8.748;2023-11-18T09:59:46;23.15;;;11.02;;
72557;SDS011;60583;50.094;8.748;2023-11-18T10:02:20;25.40;;;12.35;;
72557;SDS011;60583;50.094;8.748;2023-11-18T10:04:48;23.27;;;10.88;;
72557;SDS011;60583;50.094;8.748;2023-11-18T10:07:19;24.98;;;10.85;;
72557;SDS011;60583;50.094;8.748;2023-11-18T10:09:47;23.40;;;10.27;;
72557;SDS011;60583;50.094;8.748;2023-11-18T10:12:14;22.48;;;10.73;;
72557;SDS011;60583;50.094;8.748;2023-11-18T10:14:42;23.10;;;10.60;;
72557;SDS011;60583;50.094;8.748;2023-11-18T10:17:08;22.88;;;10.20;;
72557;SDS011;60583;50.094;8.748;2023-11-18T10:19:53;20.58;;;9.45;;
72557;SDS011;60583;50.094;8.748;2023-11-18T10:22:23;22.25;;;11.30;;
72557;SDS011;60583;50.094;8.748;2023-11-18T10:24:54;21.67;;;10.52;;
72557;SDS011;60583;50.094;8.748;2023-11-18T10:27:21;23.20;;;10.38;;
72557;SDS011;60583;50.094;8.748;2023-11-18T10:29:50;21.02;;;9.90;;
72557;SDS011;60583;50.094;8.748;2023-11-18T10:32:17;24.63;;;10.80;;
72557;SDS011;60583;50.094;8.748;2023-11-18T10:34:51;21.80;;;10.15;;
72557;SDS011;60583;50.094;8.748;2023-11-18T10:37:18;23.77;;;10.57;;
72557;SDS011;60583;50.094;8.748;2023-11-18T10:39:47;22.83;;;11.05;;
72557;SDS011;60583;50.094;8.748;2023-11-18T10:42:16;25.85;;;11.25;;
72557;SDS011;60583;50.094;8.748;2023-11-18T10:45:17;22.67;;;10.35;;
72557;SDS011;60583;50.094;8.748;2023-11-18T10:47:38;22.45;;;10.15;;
72557;SDS011;60583;50.094;8.748;2023-11-18T10:50:07;25.30;;;11.20;;
72557;SDS011;60583;50.094;8.748;2023-11-18T10:52:35;24.00;;;10.75;;
72557;SDS011;60583;50.094;8.748;2023-11-18T10:55:05;22.00;;;10.73;;
72557;SDS011;60583;50.094;8.748;2023-11-18T10:57:36;23.52;;;11.68;;
72557;SDS011;60583;50.094;8.748;2023-11-18T11:00:06;23.40;;;11.23;;
72557;SDS011;60583;50.094;8.748;2023-11-18T11:02:38;24.98;;;11.23;;
72557;SDS011;60583;50.094;8.748;2023-11-18T11:05:07;20.88;;;10.68;;
72557;SDS011;60583;50.094;8.748;2023-11-18T11:07:33;21.08;;;10.15;;
72557;SDS011;60583;50.094;8.748;2023-11-18T11:10:00;22.40;;;9.98;;
72557;SDS011;60583;50.094;8.748;2023-11-18T11:12:31;23.98;;;10.48;;
72557;SDS011;60583;50.094;8.748;2023-11-18T11:15:06;23.05;;;10.73;;
72557;SDS011;60583;50.094;8.748;2023-11-18T11:17:39;26.85;;;11.98;;
72557;SDS011;60583;50.094;8.748;2023-11-18T11:20:12;24.30;;;11.43;;
72557;SDS011;60583;50.094;8.748;2023-11-18T11:23:09;20.27;;;10.07;;
72557;SDS011;60583;50.094;8.748;2023-11-18T11:26:06;23.52;;;10.50;;
72557;SDS011;60583;50.094;8.748;2023-11-18T11:28:53;24.05;;;10.82;;
72557;SDS011;60583;50.094;8.748;2023-11-18T11:36:29;23.73;;;11.10;;
72557;SDS011;60583;50.094;8.748;2023-11-18T11:38:59;19.83;;;10.10;;
72557;SDS011;60583;50.094;8.748;2023-11-18T11:41:26;21.85;;;10.15;;
72557;SDS011;60583;50.094;8.748;2023-11-18T11:43:54;19.65;;;10.10;;
72557;SDS011;60583;50.094;8.748;2023-11-18T11:46:21;19.55;;;10.13;;
72557;SDS011;60583;50.094;8.748;2023-11-18T11:48:49;21.63;;;10.57;;
72557;SDS011;60583;50.094;8.748;2023-11-18T11:54:20;19.88;;;9.48;;
72557;SDS011;60583;50.094;8.748;2023-11-18T11:56:55;20.27;;;10.45;;
72557;SDS011;60583;50.094;8.748;2023-11-18T12:02:14;18.13;;;8.73;;
72557;SDS011;60583;50.094;8.748;2023-11-18T12:04:47;19.38;;;9.65;;
72557;SDS011;60583;50.094;8.748;2023-11-18T12:07:17;17.80;;;9.05;;
72557;SDS011;60583;50.094;8.748;2023-11-18T12:09:46;18.17;;;9.48;;
72557;SDS011;60583;50.094;8.748;2023-11-18T12:12:18;19.05;;;9.50;;
72557;SDS011;60583;50.094;8.748;2023-11-18T12:14:49;19.48;;;10.45;;
72557;SDS011;60583;50.094;8.748;2023-11-18T12:23:08;20.45;;;9.95;;
72557;SDS011;60583;50.094;8.748;2023-11-18T12:25:39;17.52;;;8.88;;
72557;SDS011;60583;50.094;8.748;2023-11-18T12:28:14;19.13;;;9.43;;
72557;SDS011;60583;50.094;8.748;2023-11-18T12:30:41;17.08;;;9.18;;
72557;SDS011;60583;50.094;8.748;2023-11-18T12:33:18;19.60;;;9.45;;
72557;SDS011;60583;50.094;8.748;2023-11-18T12:41:03;17.33;;;8.55;;
72557;SDS011;60583;50.094;8.748;2023-11-18T12:43:46;16.10;;;8.27;;
72557;SDS011;60583;50.094;8.748;2023-11-18T12:49:12;17.38;;;8.90;;
72557;SDS011;60583;50.094;8.748;2023-11-18T12:51:48;18.77;;;8.40;;
72557;SDS011;60583;50.094;8.748;2023-11-18T12:54:14;14.88;;;7.95;;
72557;SDS011;60583;50.094;8.748;2023-11-18T12:56:41;19.33;;;8.27;;
72557;SDS011;60583;50.094;8.748;2023-11-18T12:59:14;16.08;;;8.70;;
72557;SDS011;60583;50.094;8.748;2023-11-18T13:01:43;21.33;;;9.60;;
72557;SDS011;60583;50.094;8.748;2023-11-18T13:04:16;18.98;;;10.35;;
72557;SDS011;60583;50.094;8.748;2023-11-18T13:06:42;17.70;;;10.02;;
72557;SDS011;60583;50.094;8.748;2023-11-18T13:09:08;16.25;;;7.95;;
72557;SDS011;60583;50.094;8.748;2023-11-18T13:11:35;17.90;;;8.70;;
72557;SDS011;60583;50.094;8.748;2023-11-18T13:14:01;17.67;;;8.60;;
72557;SDS011;60583;50.094;8.748;2023-11-18T13:16:28;20.35;;;9.65;;
72557;SDS011;60583;50.094;8.748;2023-11-18T13:18:53;17.83;;;9.20;;
72557;SDS011;60583;50.094;8.748;2023-11-18T13:21:20;17.17;;;8.85;;
72557;SDS011;60583;50.094;8.748;2023-11-18T13:23:48;19.35;;;10.15;;
72557;SDS011;60583;50.094;8.748;2023-11-18T13:26:18;15.63;;;8.38;;
72557;SDS011;60583;50.094;8.748;2023-11-18T13:28:45;17.83;;;9.13;;
72557;SDS011;60583;50.094;8.748;2023-11-18T13:31:11;14.40;;;7.80;;
72557;SDS011;60583;50.094;8.748;2023-11-18T13:33:46;15.15;;;8.95;;
72557;SDS011;60583;50.094;8.748;2023-11-18T13:36:14;14.82;;;8.05;;
72557;SDS011;60583;50.094;8.748;2023-11-18T13:38:40;17.10;;;9.13;;
72557;SDS011;60583;50.094;8.748;2023-11-18T13:41:07;14.65;;;7.57;;
72557;SDS011;60583;50.094;8.748;2023-11-18T13:43:43;19.98;;;8.45;;
72557;SDS011;60583;50.094;8.748;2023-11-18T13:46:10;14.40;;;7.13;;
72557;SDS011;60583;50.094;8.748;2023-11-18T13:48:37;13.07;;;7.60;;
72557;SDS011;60583;50.094;8.748;2023-11-18T13:51:06;15.15;;;7.97;;
72557;SDS011;60583;50.094;8.748;2023-11-18T13:53:33;12.70;;;6.88;;
72557;SDS011;60583;50.094;8.748;2023-11-18T13:55:59;16.58;;;8.57;;
72557;SDS011;60583;50.094;8.748;2023-11-18T13:58:25;14.23;;;7.00;;
72557;SDS011;60583;50.094;8.748;2023-11-18T14:00:53;14.52;;;7.40;;
72557;SDS011;60583;50.094;8.748;2023-11-18T14:03:19;13.82;;;6.78;;
72557;SDS011;60583;50.094;8.748;2023-11-18T14:05:46;11.77;;;6.57;;
72557;SDS011;60583;50.094;8.748;2023-11-18T14:08:16;11.52;;;7.18;;
72557;SDS011;60583;50.094;8.748;2023-11-18T14:10:43;12.55;;;6.65;;
72557;SDS011;60583;50.094;8.748;2023-11-18T14:13:09;13.20;;;5.95;;
72557;SDS011;60583;50.094;8.748;2023-11-18T14:15:37;11.43;;;5.80;;
72557;SDS011;60583;50.094;8.748;2023-11-18T14:18:03;12.20;;;6.68;;
72557;SDS011;60583;50.094;8.748;2023-11-18T14:20:31;12.05;;;6.70;;
72557;SDS011;60583;50.094;8.748;2023-11-18T14:22:57;12.30;;;6.78;;
72557;SDS011;60583;50.094;8.748;2023-11-18T14:25:23;15.52;;;7.35;;
72557;SDS011;60583;50.094;8.748;2023-11-18T14:27:50;12.38;;;6.97;;
72557;SDS011;60583;50.094;8.748;2023-11-18T14:30:16;14.23;;;7.28;;
72557;SDS011;60583;50.094;8.748;2023-11-18T14:32:42;13.60;;;6.78;;
72557;SDS011;60583;50.094;8.748;2023-11-18T14:35:08;11.50;;;6.43;;
72557;SDS011;60583;50.094;8.748;2023-11-18T14:37:38;12.18;;;6.13;;
72557;SDS011;60583;50.094;8.748;2023-11-18T14:40:07;10.80;;;5.80;;
72557;SDS011;60583;50.094;8.748;2023-11-18T14:42:39;9.45;;;5.20;;
72557;SDS011;60583;50.094;8.748;2023-11-18T14:45:06;10.77;;;5.03;;
72557;SDS011;60583;50.094;8.748;2023-11-18T14:47:33;11.63;;;5.35;;
72557;SDS011;60583;50.094;8.748;2023-11-18T14:49:59;10.07;;;5.07;;
72557;SDS011;60583;50.094;8.748;2023-11-18T14:52:24;9.82;;;5.03;;
72557;SDS011;60583;50.094;8.748;2023-11-18T14:54:50;9.32;;;4.90;;
72557;SDS011;60583;50.094;8.748;2023-11-18T14:57:16;9.98;;;4.78;;
72557;SDS011;60583;50.094;8.748;2023-11-18T14:59:41;9.45;;;4.93;;
72557;SDS011;60583;50.094;8.748;2023-11-18T15:02:07;10.88;;;5.22;;
72557;SDS011;60583;50.094;8.748;2023-11-18T15:04:33;9.60;;;5.00;;
72557;SDS011;60583;50.094;8.748;2023-11-18T15:06:59;11.77;;;6.05;;
72557;SDS011;60583;50.094;8.748;2023-11-18T15:09:24;10.52;;;5.25;;
72557;SDS011;60583;50.094;8.748;2023-11-18T15:11:49;10.07;;;5.28;;
72557;SDS011;60583;50.094;8.748;2023-11-18T15:14:18;10.95;;;5.85;;